This is the latest recevied weather packets stored in our database for station/object Primda. If no packets are shown the sender has not sent any weather packets the latest 1 day(s).
| Time | Temp. | Humidity | Pressure | Rain* | Wind** | Luminosity | Snow |
|---|---|---|---|---|---|---|---|
| 1778012167 | 11.11° C | 93% | - | - | 2.24 m/s, 270° | - | - |
| 1778008568 | 11.11° C | 93% | - | - | 6.26 m/s, 280° | - | - |
| 1778004967 | 11.11° C | 93% | - | - | 7.15 m/s, 270° | - | - |
| 1778001366 | 13.89° C | 82% | - | - | 4.02 m/s, 70° | - | - |
| 1777997827 | 17.22° C | 63% | - | - | 2.24 m/s, 70° | - | - |
| 1777994166 | 20° C | 40% | - | - | 0.89 m/s, 70° | - | - |
| 1777990567 | 21.11° C | 35% | - | - | 0.89 m/s, 80° | - | - |
| 1777986967 | 21.11° C | 37% | - | - | 2.24 m/s, 180° | - | - |
| 1777983366 | 22.22° C | 35% | - | - | 0.89 m/s, 110° | - | - |
| 1777979766 | 20° C | 45% | - | - | 0.89 m/s, 20° | - | - |
| 1777976167 | 20° C | 45% | - | - | 2.24 m/s, 40° | - | - |
| 1777972566 | 17.78° C | 52% | - | - | 0.89 m/s, 70° | - | - |
| 1777968966 | 17.22° C | 51% | - | - | 2.24 m/s, 70° | - | - |
| 1777965366 | 15° C | 62% | - | - | 2.24 m/s, 70° | - | - |
| 1777961767 | 15° C | 62% | - | - | 2.24 m/s, 70° | - | - |
| 1777958167 | 12.78° C | 66% | - | - | 3.13 m/s, 70° | - | - |
| 1777954565 | 12.78° C | 66% | - | - | 3.13 m/s, 70° | - | - |
| 1777950967 | 12.78° C | 66% | - | - | 2.24 m/s, 70° | - | - |
| 1777947366 | 13.89° C | 62% | - | - | 2.24 m/s, 70° | - | - |
| 1777943768 | 13.89° C | 58% | - | - | 3.13 m/s, 80° | - | - |
| 1777940167 | 15° C | 54% | - | - | 2.24 m/s, 60° | - | - |
| 1777936567 | 15° C | 54% | - | - | 2.24 m/s, 30° | - | - |
| 1777932967 | 16.11° C | 44% | - | - | 0.89 m/s, 40° | - | - |
| 1777929366 | 17.78° C | 34% | - | - | 0.89 m/s, 20° | - | - |
* Rain since midnight (hover to see other rain measurements)
** Current wind speed in m/s (hover to see current wind gust speed)